Nordlys — YJTS2 — position and weather

sailwx.info

Track history (hours):
 
Tides and Currents Weather Stations Pressure Air Temp Water Temp Dewpoint Dewpoint Depression Visibility Wind Speed Wind Dir Waves Ship Positions

Nordlys

Ship's website: http://fairtransport.eu/category/nordlys/

Last reported at 2019-Sep-18 04:50 UTC. Time now 2019-Sep-21 21:23 UTC.
Position N 43°39' W 003°54'.

Length 20 m; draft 3 m.

MMSI: 577228000.

Date/timePositionNaut miles runAvg speedWind from/ knotsBaromVisibWave heightAir tempDewpointWater temp
2019-Sep-18 04:50N 43°39' W 003°54'0 0.3
2019-Sep-18 04:26N 43°39' W 003°54'1 1.1
2019-Sep-18 03:43N 43°38' W 003°54'0 1.8
2019-Sep-18 03:29N 43°38' W 003°54'3 1.6
2019-Sep-18 01:51N 43°36' W 003°52'1 2.9
2019-Sep-18 01:30N 43°35' W 003°51'1 2.3
2019-Sep-18 00:59N 43°34' W 003°50'1 2.2
2019-Sep-18 00:30N 43°33' W 003°49'1 1.8
2019-Sep-18 00:01N 43°33' W 003°48'1 2.5
2019-Sep-17 23:30N 43°33' W 003°47'1 2.3
2019-Sep-17 22:58N 43°32' W 003°45'1 1.0
2019-Sep-17 22:28N 43°32' W 003°45'  
2019-Sep-13 17:57N 43°32' W 003°45'2 3.8
2019-Sep-13 17:31N 43°33' W 003°44'3 4.5
2019-Sep-13 16:50N 43°36' W 003°44'2 4.8
2019-Sep-13 16:29N 43°38' W 003°44'2 4.4
2019-Sep-13 16:00N 43°40' W 003°44'2 4.7
2019-Sep-13 15:30N 43°43' W 003°44'2 4.6
2019-Sep-13 15:00N 43°45' W 003°44'  
2019-Sep-10 07:43N 48°08' W 005°38'129 4.0
2019-Sep-08 23:52N 50°01' W 004°04'4 1.7
2019-Sep-08 21:26N 50°01' W 003°57'31 2.7
2019-Sep-08 10:13N 49°46' W 003°15'1 3.0
2019-Sep-08 09:48N 49°47' W 003°14'5 3.3
2019-Sep-08 08:24N 49°50' W 003°09'7 3.0
2019-Sep-08 05:59N 49°55' W 003°00'1 2.8
2019-Sep-08 05:29N 49°56' W 002°59'2 2.6
2019-Sep-08 04:51N 49°57' W 002°58'  
Track history (hours):
 
Tides and Currents Weather Stations Pressure Air Temp Water Temp Dewpoint Dewpoint Depression Visibility Wind Speed Wind Dir Waves Ship Positions

Nordlys

Ship's website: http://fairtransport.eu/category/nordlys/

Last reported at 2019-Sep-18 04:50 UTC. Time now 2019-Sep-21 21:23 UTC.
Position N 43°39' W 003°54'.

Length 20 m; draft 3 m.

MMSI: 577228000.

Date/timePositionNaut miles runAvg speedWind from/ knotsBaromVisibWave heightAir tempDewpointWater temp
2019-Sep-18 04:50N 43°39' W 003°54'0 0.3
2019-Sep-18 04:26N 43°39' W 003°54'1 1.1
2019-Sep-18 03:43N 43°38' W 003°54'0 1.8
2019-Sep-18 03:29N 43°38' W 003°54'3 1.6
2019-Sep-18 01:51N 43°36' W 003°52'1 2.9
2019-Sep-18 01:30N 43°35' W 003°51'1 2.3
2019-Sep-18 00:59N 43°34' W 003°50'1 2.2
2019-Sep-18 00:30N 43°33' W 003°49'1 1.8
2019-Sep-18 00:01N 43°33' W 003°48'1 2.5
2019-Sep-17 23:30N 43°33' W 003°47'1 2.3
2019-Sep-17 22:58N 43°32' W 003°45'1 1.0
2019-Sep-17 22:28N 43°32' W 003°45'  
2019-Sep-13 17:57N 43°32' W 003°45'2 3.8
2019-Sep-13 17:31N 43°33' W 003°44'3 4.5
2019-Sep-13 16:50N 43°36' W 003°44'2 4.8
2019-Sep-13 16:29N 43°38' W 003°44'2 4.4
2019-Sep-13 16:00N 43°40' W 003°44'2 4.7
2019-Sep-13 15:30N 43°43' W 003°44'2 4.6
2019-Sep-13 15:00N 43°45' W 003°44'  
2019-Sep-10 07:43N 48°08' W 005°38'129 4.0
2019-Sep-08 23:52N 50°01' W 004°04'4 1.7
2019-Sep-08 21:26N 50°01' W 003°57'31 2.7
2019-Sep-08 10:13N 49°46' W 003°15'1 3.0
2019-Sep-08 09:48N 49°47' W 003°14'5 3.3
2019-Sep-08 08:24N 49°50' W 003°09'7 3.0
2019-Sep-08 05:59N 49°55' W 003°00'1 2.8
2019-Sep-08 05:29N 49°56' W 002°59'2 2.6
2019-Sep-08 04:51N 49°57' W 002°58'  

Dump ship's entire track history